N0,26 Fumimaru — JK5398 — position and weather

sailwx.info

Track history (hours):
 
Tides and Currents Weather Stations Pressure Air Temp Water Temp Dewpoint Dewpoint Depression Visibility Wind Speed Wind Dir Waves Ship Positions

N0,26 Fumimaru

Last reported at 2015-Jul-04 01:33 UTC. Time now 2015-Jul-04 05:05 UTC.
Position N 35°02' E 139°44'.

Length 39 m.

Type: Ship. MMSI: 431400427.

Date/timePositionNaut miles runAvg speedWind from/ knotsBaromVisibWave heightAir tempDewpointWater temp
2015-Jul-04 01:33N 35°02' E 139°44'7 6.9
2015-Jul-04 00:33N 35°09' E 139°46'8 7.3
2015-Jul-03 23:25N 35°17' E 139°45'7 7.6
2015-Jul-03 22:32N 35°24' E 139°43'10 8.0
2015-Jul-03 21:18N 35°30' E 139°52'5 6.7
2015-Jul-03 20:33N 35°35' E 139°51'3 2.9
2015-Jul-03 19:31N 35°37' E 139°48'0 0.0
2015-Jul-03 18:31N 35°37' E 139°48'0 0.0
2015-Jul-03 17:31N 35°37' E 139°48'0 0.0
2015-Jul-03 16:28N 35°37' E 139°48'0 0.0
2015-Jul-03 15:31N 35°37' E 139°48'0 0.0
2015-Jul-03 11:25N 35°37' E 139°48'0 0.0
2015-Jul-03 10:31N 35°37' E 139°48'0 0.0
2015-Jul-03 09:31N 35°37' E 139°48'0 0.0
2015-Jul-03 08:19N 35°37' E 139°48'0 0.0
2015-Jul-03 07:25N 35°37' E 139°48'0 0.0
2015-Jul-03 06:31N 35°37' E 139°48'0 0.0
2015-Jul-03 04:19N 35°37' E 139°48'0 0.0
2015-Jul-03 03:31N 35°37' E 139°48'0 0.0
2015-Jul-03 02:31N 35°37' E 139°48'0 0.0
2015-Jul-02 23:25N 35°37' E 139°48'0 0.0
2015-Jul-02 22:13N 35°37' E 139°48'0 0.0
2015-Jul-02 21:22N 35°37' E 139°48'0 0.0
2015-Jul-02 20:25N 35°37' E 139°48'0 0.0
2015-Jul-02 19:31N 35°37' E 139°48'0 0.0
2015-Jul-02 18:31N 35°37' E 139°48'0 0.0
2015-Jul-02 17:31N 35°37' E 139°48'0 0.0
2015-Jul-02 16:31N 35°37' E 139°48'0 0.0
2015-Jul-02 15:19N 35°37' E 139°48'0 0.0
2015-Jul-02 14:25N 35°37' E 139°48'0 0.0
2015-Jul-02 13:31N 35°37' E 139°48'0 0.0
2015-Jul-02 12:31N 35°37' E 139°48'0 0.0
2015-Jul-02 11:31N 35°37' E 139°48'0 0.0
2015-Jul-02 10:22N 35°37' E 139°48'0 0.0
2015-Jul-02 09:31N 35°37' E 139°48'0 0.0
2015-Jul-02 08:31N 35°37' E 139°48'0 0.0
2015-Jul-02 07:31N 35°37' E 139°48'0 0.0
2015-Jul-02 06:31N 35°37' E 139°48'0 0.0
2015-Jul-02 05:31N 35°37' E 139°48'0 0.0
2015-Jul-02 04:31N 35°37' E 139°48'0 0.0
2015-Jul-02 03:13N 35°37' E 139°48'0 0.0
2015-Jul-02 02:31N 35°37' E 139°48'0 0.0
2015-Jul-02 01:31N 35°37' E 139°48'0 0.0
2015-Jul-02 00:31N 35°37' E 139°48'0 0.0
2015-Jul-01 22:13N 35°37' E 139°48'0 0.0
2015-Jul-01 21:25N 35°37' E 139°48'0 0.0
2015-Jul-01 20:19N 35°37' E 139°48'0 0.0
2015-Jul-01 19:31N 35°37' E 139°48'0 0.0
2015-Jul-01 17:07N 35°37' E 139°48'0 0.0
2015-Jul-01 16:31N 35°37' E 139°48'0 0.0
2015-Jul-01 15:13N 35°37' E 139°48'0 0.0
2015-Jul-01 14:31N 35°37' E 139°48'0 0.0
2015-Jul-01 13:31N 35°37' E 139°48'0 0.0
2015-Jul-01 12:13N 35°37' E 139°48'0 0.0
2015-Jul-01 11:31N 35°37' E 139°48'0 0.0
2015-Jul-01 07:16N 35°37' E 139°48'0 0.0
2015-Jul-01 06:13N 35°37' E 139°48'0 0.0
2015-Jul-01 05:31N 35°37' E 139°48'0 0.0
2015-Jul-01 04:19N 35°37' E 139°48'0 0.0
2015-Jul-01 03:28N 35°37' E 139°48'0 0.0
2015-Jul-01 02:31N 35°37' E 139°48'0 0.0
2015-Jul-01 01:31N 35°37' E 139°48'0 0.0
2015-Jul-01 00:28N 35°37' E 139°48'0 0.0
2015-Jun-30 23:31N 35°37' E 139°48'0 0.0
2015-Jun-30 22:19N 35°37' E 139°48'0 0.0
2015-Jun-30 21:31N 35°37' E 139°48'0 0.0
2015-Jun-30 20:28N 35°37' E 139°48'0 0.0
2015-Jun-30 19:28N 35°37' E 139°48'0 0.0
2015-Jun-30 18:28N 35°37' E 139°48'0 0.0
2015-Jun-30 17:31N 35°37' E 139°48'0 0.0
2015-Jun-30 16:31N 35°37' E 139°48'0 0.0
2015-Jun-30 15:31N 35°37' E 139°48'0 0.0
2015-Jun-30 14:31N 35°37' E 139°48'0 0.0
2015-Jun-30 13:25N 35°37' E 139°48'0 0.0
2015-Jun-30 12:25N 35°37' E 139°48'0 0.0
2015-Jun-30 11:25N 35°37' E 139°48'0 0.0
2015-Jun-30 10:25N 35°37' E 139°48'8 9.7
2015-Jun-30 09:33N 35°31' E 139°55'4 4.0
2015-Jun-30 08:33N 35°28' E 139°58'7 6.7
2015-Jun-30 07:32N 35°27' E 139°49'7 7.1
2015-Jun-30 06:31N 35°25' E 139°41'0 0.2
2015-Jun-30 05:28N 35°25' E 139°41'9 9.6
2015-Jun-30 04:32N 35°31' E 139°49'6 6.3
2015-Jun-30 03:32N 35°37' E 139°48'0 0.0
2015-Jun-30 02:32N 35°37' E 139°48'0 0.0
2015-Jun-30 01:26N 35°37' E 139°48'0 0.0
2015-Jun-30 00:33N 35°37' E 139°48'0 0.0
2015-Jun-29 23:30N 35°37' E 139°48'0 0.0
2015-Jun-29 22:30N 35°37' E 139°48'0 0.0
2015-Jun-29 21:33N 35°37' E 139°48'0 0.0
2015-Jun-29 20:30N 35°37' E 139°48'0 0.0
2015-Jun-29 19:33N 35°37' E 139°48'0 0.0
2015-Jun-29 18:33N 35°37' E 139°48'0 0.0
2015-Jun-29 17:33N 35°37' E 139°48'0 0.0
2015-Jun-29 16:30N 35°37' E 139°48'0 0.0
2015-Jun-29 15:33N 35°37' E 139°48'0 0.0
2015-Jun-29 14:33N 35°37' E 139°48'0 0.0
2015-Jun-29 13:33N 35°37' E 139°48'0 0.0
2015-Jun-29 12:27N 35°37' E 139°48'0 0.0
2015-Jun-29 11:33N 35°37' E 139°48'0 0.0
2015-Jun-29 10:30N 35°37' E 139°48'0 0.0
2015-Jun-29 09:33N 35°37' E 139°48'0 0.0
2015-Jun-29 08:30N 35°37' E 139°48'0 0.0
2015-Jun-29 07:33N 35°37' E 139°48'0 0.0
2015-Jun-29 06:33N 35°37' E 139°48'0 0.0
2015-Jun-29 05:24N 35°37' E 139°48'0 0.0
2015-Jun-29 04:30N 35°37' E 139°48'0 0.0
2015-Jun-29 03:30N 35°37' E 139°48'0 0.0
2015-Jun-29 02:30N 35°37' E 139°48'0 0.0
2015-Jun-29 01:33N 35°37' E 139°48'0 0.0
2015-Jun-29 00:30N 35°37' E 139°48'0 0.0
2015-Jun-28 23:33N 35°37' E 139°48'0 0.0
2015-Jun-28 22:33N 35°37' E 139°48'0 0.0
2015-Jun-28 21:27N 35°37' E 139°48'0 0.0
2015-Jun-28 20:30N 35°37' E 139°48'0 0.0
2015-Jun-28 19:33N 35°37' E 139°48'0 0.0
2015-Jun-28 18:30N 35°37' E 139°48'0 0.0
2015-Jun-28 17:33N 35°37' E 139°48'0 0.0
2015-Jun-28 16:33N 35°37' E 139°48'0 0.0
2015-Jun-28 15:30N 35°37' E 139°48'0 0.0
2015-Jun-28 14:30N 35°37' E 139°48'0 0.0
2015-Jun-28 13:30N 35°37' E 139°48'0 0.0
2015-Jun-28 12:33N 35°37' E 139°48'0 0.0
2015-Jun-28 11:33N 35°37' E 139°48'0 0.0
2015-Jun-28 10:30N 35°37' E 139°48'0 0.0
2015-Jun-28 09:33N 35°37' E 139°48'0 0.0
2015-Jun-28 08:30N 35°37' E 139°48'0 0.0
2015-Jun-28 07:30N 35°37' E 139°48'0 0.0
2015-Jun-28 06:30N 35°37' E 139°48'0 0.0
2015-Jun-28 05:33N 35°37' E 139°48'0 0.0
2015-Jun-28 04:30N 35°37' E 139°48'0 0.0
2015-Jun-28 03:33N 35°37' E 139°48'0 0.0
2015-Jun-28 02:24N 35°37' E 139°48'0 0.0
2015-Jun-28 01:33N 35°37' E 139°48'0 0.0
2015-Jun-28 00:33N 35°37' E 139°48'0 0.0
2015-Jun-27 23:33N 35°37' E 139°48'0 0.0
2015-Jun-27 22:30N 35°37' E 139°48'0 0.0
2015-Jun-27 21:30N 35°37' E 139°48'0 0.0
2015-Jun-27 20:33N 35°37' E 139°48'0 0.0
2015-Jun-27 19:33N 35°37' E 139°48'0 0.0
2015-Jun-27 18:30N 35°37' E 139°48'0 0.0
2015-Jun-27 17:27N 35°37' E 139°48'0 0.0
2015-Jun-27 16:32N 35°37' E 139°48'0 0.0
2015-Jun-27 15:32N 35°37' E 139°48'0 0.0
2015-Jun-27 14:32N 35°37' E 139°48'0 0.0
2015-Jun-27 13:32N 35°37' E 139°48'0 0.0
2015-Jun-27 12:32N 35°37' E 139°48'0 0.0
2015-Jun-27 11:29N 35°37' E 139°48'0 0.0
2015-Jun-27 10:29N 35°37' E 139°48'2 2.2
2015-Jun-27 09:33N 35°36' E 139°50'7 6.6
2015-Jun-27 08:32N 35°35' E 139°58'5 5.5
2015-Jun-27 07:33N 35°33' E 140°04'1 0.7
2015-Jun-27 06:32N 35°33' E 140°05'0 0.0
2015-Jun-27 05:29N 35°33' E 140°05'0 0.0
2015-Jun-27 04:29N 35°33' E 140°05'0 0.0
2015-Jun-27 03:32N 35°33' E 140°05'0 0.0
2015-Jun-27 02:32N 35°33' E 140°05'0 0.0
2015-Jun-27 01:32N 35°33' E 140°05'0 0.0
2015-Jun-27 00:26N 35°33' E 140°05'0 0.0
2015-Jun-26 23:32N 35°33' E 140°05'0 0.0
2015-Jun-26 22:32N 35°33' E 140°05'0 0.0
2015-Jun-26 21:29N 35°33' E 140°05'1 0.8
2015-Jun-26 20:31N 35°33' E 140°06'0 0.0
2015-Jun-26 19:31N 35°33' E 140°06'0 0.0
2015-Jun-26 18:31N 35°33' E 140°06'0 0.0
2015-Jun-26 17:28N 35°33' E 140°06'0 0.0
2015-Jun-26 16:16N 35°33' E 140°06'0 0.0
2015-Jun-26 15:31N 35°33' E 140°06'0 0.0
2015-Jun-26 14:31N 35°33' E 140°06'0 0.0
2015-Jun-26 13:31N 35°33' E 140°06'0 0.0
2015-Jun-26 12:28N 35°33' E 140°06'0 0.0
2015-Jun-26 11:28N 35°33' E 140°06'0 0.0
2015-Jun-26 10:28N 35°33' E 140°06'0 0.0
2015-Jun-26 09:31N 35°33' E 140°06'0 0.0
2015-Jun-26 08:25N 35°33' E 140°06'0 0.0
2015-Jun-26 07:25N 35°33' E 140°06'0 0.0
2015-Jun-26 06:31N 35°33' E 140°06'0 0.0
2015-Jun-26 05:31N 35°33' E 140°06'0 0.0
2015-Jun-26 04:31N 35°33' E 140°06'0 0.0
2015-Jun-26 03:28N 35°33' E 140°06'0 0.0
2015-Jun-26 02:31N 35°33' E 140°06'0 0.0
2015-Jun-26 01:28N 35°33' E 140°06'0 0.0
2015-Jun-26 00:31N 35°33' E 140°06'0 0.0
2015-Jun-25 23:28N 35°33' E 140°06'0 0.0
2015-Jun-25 22:22N 35°33' E 140°06'2 2.3
2015-Jun-25 21:33N 35°33' E 140°04'4 4.1
2015-Jun-25 20:30N 35°34' E 139°58'4 4.2
2015-Jun-25 19:33N 35°35' E 139°54'5 5.0
2015-Jun-25 18:32N 35°37' E 139°48'0 0.2
2015-Jun-25 17:33N 35°37' E 139°48'0 0.0
2015-Jun-25 16:33N 35°37' E 139°48'0 0.0
2015-Jun-25 15:30N 35°37' E 139°48'0 0.0
2015-Jun-25 14:30N 35°37' E 139°48'0 0.0
2015-Jun-25 13:24N 35°37' E 139°48'0 0.0
2015-Jun-25 12:33N 35°37' E 139°48'0 0.0
2015-Jun-25 11:30N 35°37' E 139°48'0 0.0
2015-Jun-25 10:30N 35°37' E 139°48'0 0.0
2015-Jun-25 09:33N 35°37' E 139°48'0 0.0
2015-Jun-25 08:33N 35°37' E 139°48'0 0.0
2015-Jun-25 07:33N 35°37' E 139°48'0 0.0
2015-Jun-25 06:27N 35°37' E 139°48'0 0.0
2015-Jun-25 05:33N 35°37' E 139°48'0 0.0
2015-Jun-25 04:33N 35°37' E 139°48'0 0.0
2015-Jun-25 03:33N 35°37' E 139°48'0 0.0
2015-Jun-25 02:33N 35°37' E 139°48'0 0.0
2015-Jun-25 01:33N 35°37' E 139°48'2 1.7
2015-Jun-25 00:33N 35°36' E 139°50'0 0.0
2015-Jun-24 23:33N 35°36' E 139°50'2 1.2
2015-Jun-24 22:11N 35°37' E 139°48'0 0.0
2015-Jun-24 21:23N 35°37' E 139°48'0 0.0
2015-Jun-24 20:29N 35°37' E 139°48'0 0.0
2015-Jun-24 16:29N 35°37' E 139°48'0 0.0
2015-Jun-24 15:23N 35°37' E 139°48'0 0.0
2015-Jun-24 13:17N 35°37' E 139°48'0 0.0
2015-Jun-24 12:23N 35°37' E 139°48'0 0.0
2015-Jun-24 09:29N 35°37' E 139°48'0 0.0
2015-Jun-24 08:23N 35°37' E 139°48'4 2.0
2015-Jun-24 06:33N 35°35' E 139°51'12 9.7
2015-Jun-24 05:17N 35°23' E 139°46'8 9.6
2015-Jun-24 04:27N 35°15' E 139°47'  
Track history (hours):
 
Tides and Currents Weather Stations Pressure Air Temp Water Temp Dewpoint Dewpoint Depression Visibility Wind Speed Wind Dir Waves Ship Positions

N0,26 Fumimaru

Last reported at 2015-Jul-04 01:33 UTC. Time now 2015-Jul-04 05:05 UTC.
Position N 35°02' E 139°44'.

Length 39 m.

Type: Ship. MMSI: 431400427.

Date/timePositionNaut miles runAvg speedWind from/ knotsBaromVisibWave heightAir tempDewpointWater temp
2015-Jul-04 01:33N 35°02' E 139°44'7 6.9
2015-Jul-04 00:33N 35°09' E 139°46'8 7.3
2015-Jul-03 23:25N 35°17' E 139°45'7 7.6
2015-Jul-03 22:32N 35°24' E 139°43'10 8.0
2015-Jul-03 21:18N 35°30' E 139°52'5 6.7
2015-Jul-03 20:33N 35°35' E 139°51'3 2.9
2015-Jul-03 19:31N 35°37' E 139°48'0 0.0
2015-Jul-03 18:31N 35°37' E 139°48'0 0.0
2015-Jul-03 17:31N 35°37' E 139°48'0 0.0
2015-Jul-03 16:28N 35°37' E 139°48'0 0.0
2015-Jul-03 15:31N 35°37' E 139°48'0 0.0
2015-Jul-03 11:25N 35°37' E 139°48'0 0.0
2015-Jul-03 10:31N 35°37' E 139°48'0 0.0
2015-Jul-03 09:31N 35°37' E 139°48'0 0.0
2015-Jul-03 08:19N 35°37' E 139°48'0 0.0
2015-Jul-03 07:25N 35°37' E 139°48'0 0.0
2015-Jul-03 06:31N 35°37' E 139°48'0 0.0
2015-Jul-03 04:19N 35°37' E 139°48'0 0.0
2015-Jul-03 03:31N 35°37' E 139°48'0 0.0
2015-Jul-03 02:31N 35°37' E 139°48'0 0.0
2015-Jul-02 23:25N 35°37' E 139°48'0 0.0
2015-Jul-02 22:13N 35°37' E 139°48'0 0.0
2015-Jul-02 21:22N 35°37' E 139°48'0 0.0
2015-Jul-02 20:25N 35°37' E 139°48'0 0.0
2015-Jul-02 19:31N 35°37' E 139°48'0 0.0
2015-Jul-02 18:31N 35°37' E 139°48'0 0.0
2015-Jul-02 17:31N 35°37' E 139°48'0 0.0
2015-Jul-02 16:31N 35°37' E 139°48'0 0.0
2015-Jul-02 15:19N 35°37' E 139°48'0 0.0
2015-Jul-02 14:25N 35°37' E 139°48'0 0.0
2015-Jul-02 13:31N 35°37' E 139°48'0 0.0
2015-Jul-02 12:31N 35°37' E 139°48'0 0.0
2015-Jul-02 11:31N 35°37' E 139°48'0 0.0
2015-Jul-02 10:22N 35°37' E 139°48'0 0.0
2015-Jul-02 09:31N 35°37' E 139°48'0 0.0
2015-Jul-02 08:31N 35°37' E 139°48'0 0.0
2015-Jul-02 07:31N 35°37' E 139°48'0 0.0
2015-Jul-02 06:31N 35°37' E 139°48'0 0.0
2015-Jul-02 05:31N 35°37' E 139°48'0 0.0
2015-Jul-02 04:31N 35°37' E 139°48'0 0.0
2015-Jul-02 03:13N 35°37' E 139°48'0 0.0
2015-Jul-02 02:31N 35°37' E 139°48'0 0.0
2015-Jul-02 01:31N 35°37' E 139°48'0 0.0
2015-Jul-02 00:31N 35°37' E 139°48'0 0.0
2015-Jul-01 22:13N 35°37' E 139°48'0 0.0
2015-Jul-01 21:25N 35°37' E 139°48'0 0.0
2015-Jul-01 20:19N 35°37' E 139°48'0 0.0
2015-Jul-01 19:31N 35°37' E 139°48'0 0.0
2015-Jul-01 17:07N 35°37' E 139°48'0 0.0
2015-Jul-01 16:31N 35°37' E 139°48'0 0.0
2015-Jul-01 15:13N 35°37' E 139°48'0 0.0
2015-Jul-01 14:31N 35°37' E 139°48'0 0.0
2015-Jul-01 13:31N 35°37' E 139°48'0 0.0
2015-Jul-01 12:13N 35°37' E 139°48'0 0.0
2015-Jul-01 11:31N 35°37' E 139°48'0 0.0
2015-Jul-01 07:16N 35°37' E 139°48'0 0.0
2015-Jul-01 06:13N 35°37' E 139°48'0 0.0
2015-Jul-01 05:31N 35°37' E 139°48'0 0.0
2015-Jul-01 04:19N 35°37' E 139°48'0 0.0
2015-Jul-01 03:28N 35°37' E 139°48'0 0.0
2015-Jul-01 02:31N 35°37' E 139°48'0 0.0
2015-Jul-01 01:31N 35°37' E 139°48'0 0.0
2015-Jul-01 00:28N 35°37' E 139°48'0 0.0
2015-Jun-30 23:31N 35°37' E 139°48'0 0.0
2015-Jun-30 22:19N 35°37' E 139°48'0 0.0
2015-Jun-30 21:31N 35°37' E 139°48'0 0.0
2015-Jun-30 20:28N 35°37' E 139°48'0 0.0
2015-Jun-30 19:28N 35°37' E 139°48'0 0.0
2015-Jun-30 18:28N 35°37' E 139°48'0 0.0
2015-Jun-30 17:31N 35°37' E 139°48'0 0.0
2015-Jun-30 16:31N 35°37' E 139°48'0 0.0
2015-Jun-30 15:31N 35°37' E 139°48'0 0.0
2015-Jun-30 14:31N 35°37' E 139°48'0 0.0
2015-Jun-30 13:25N 35°37' E 139°48'0 0.0
2015-Jun-30 12:25N 35°37' E 139°48'0 0.0
2015-Jun-30 11:25N 35°37' E 139°48'0 0.0
2015-Jun-30 10:25N 35°37' E 139°48'8 9.7
2015-Jun-30 09:33N 35°31' E 139°55'4 4.0
2015-Jun-30 08:33N 35°28' E 139°58'7 6.7
2015-Jun-30 07:32N 35°27' E 139°49'7 7.1
2015-Jun-30 06:31N 35°25' E 139°41'0 0.2
2015-Jun-30 05:28N 35°25' E 139°41'9 9.6
2015-Jun-30 04:32N 35°31' E 139°49'6 6.3
2015-Jun-30 03:32N 35°37' E 139°48'0 0.0
2015-Jun-30 02:32N 35°37' E 139°48'0 0.0
2015-Jun-30 01:26N 35°37' E 139°48'0 0.0
2015-Jun-30 00:33N 35°37' E 139°48'0 0.0
2015-Jun-29 23:30N 35°37' E 139°48'0 0.0
2015-Jun-29 22:30N 35°37' E 139°48'0 0.0
2015-Jun-29 21:33N 35°37' E 139°48'0 0.0
2015-Jun-29 20:30N 35°37' E 139°48'0 0.0
2015-Jun-29 19:33N 35°37' E 139°48'0 0.0
2015-Jun-29 18:33N 35°37' E 139°48'0 0.0
2015-Jun-29 17:33N 35°37' E 139°48'0 0.0
2015-Jun-29 16:30N 35°37' E 139°48'0 0.0
2015-Jun-29 15:33N 35°37' E 139°48'0 0.0
2015-Jun-29 14:33N 35°37' E 139°48'0 0.0
2015-Jun-29 13:33N 35°37' E 139°48'0 0.0
2015-Jun-29 12:27N 35°37' E 139°48'0 0.0
2015-Jun-29 11:33N 35°37' E 139°48'0 0.0
2015-Jun-29 10:30N 35°37' E 139°48'0 0.0
2015-Jun-29 09:33N 35°37' E 139°48'0 0.0
2015-Jun-29 08:30N 35°37' E 139°48'0 0.0
2015-Jun-29 07:33N 35°37' E 139°48'0 0.0
2015-Jun-29 06:33N 35°37' E 139°48'0 0.0
2015-Jun-29 05:24N 35°37' E 139°48'0 0.0
2015-Jun-29 04:30N 35°37' E 139°48'0 0.0
2015-Jun-29 03:30N 35°37' E 139°48'0 0.0
2015-Jun-29 02:30N 35°37' E 139°48'0 0.0
2015-Jun-29 01:33N 35°37' E 139°48'0 0.0
2015-Jun-29 00:30N 35°37' E 139°48'0 0.0
2015-Jun-28 23:33N 35°37' E 139°48'0 0.0
2015-Jun-28 22:33N 35°37' E 139°48'0 0.0
2015-Jun-28 21:27N 35°37' E 139°48'0 0.0
2015-Jun-28 20:30N 35°37' E 139°48'0 0.0
2015-Jun-28 19:33N 35°37' E 139°48'0 0.0
2015-Jun-28 18:30N 35°37' E 139°48'0 0.0
2015-Jun-28 17:33N 35°37' E 139°48'0 0.0
2015-Jun-28 16:33N 35°37' E 139°48'0 0.0
2015-Jun-28 15:30N 35°37' E 139°48'0 0.0
2015-Jun-28 14:30N 35°37' E 139°48'0 0.0
2015-Jun-28 13:30N 35°37' E 139°48'0 0.0
2015-Jun-28 12:33N 35°37' E 139°48'0 0.0
2015-Jun-28 11:33N 35°37' E 139°48'0 0.0
2015-Jun-28 10:30N 35°37' E 139°48'0 0.0
2015-Jun-28 09:33N 35°37' E 139°48'0 0.0
2015-Jun-28 08:30N 35°37' E 139°48'0 0.0
2015-Jun-28 07:30N 35°37' E 139°48'0 0.0
2015-Jun-28 06:30N 35°37' E 139°48'0 0.0
2015-Jun-28 05:33N 35°37' E 139°48'0 0.0
2015-Jun-28 04:30N 35°37' E 139°48'0 0.0
2015-Jun-28 03:33N 35°37' E 139°48'0 0.0
2015-Jun-28 02:24N 35°37' E 139°48'0 0.0
2015-Jun-28 01:33N 35°37' E 139°48'0 0.0
2015-Jun-28 00:33N 35°37' E 139°48'0 0.0
2015-Jun-27 23:33N 35°37' E 139°48'0 0.0
2015-Jun-27 22:30N 35°37' E 139°48'0 0.0
2015-Jun-27 21:30N 35°37' E 139°48'0 0.0
2015-Jun-27 20:33N 35°37' E 139°48'0 0.0
2015-Jun-27 19:33N 35°37' E 139°48'0 0.0
2015-Jun-27 18:30N 35°37' E 139°48'0 0.0
2015-Jun-27 17:27N 35°37' E 139°48'0 0.0
2015-Jun-27 16:32N 35°37' E 139°48'0 0.0
2015-Jun-27 15:32N 35°37' E 139°48'0 0.0
2015-Jun-27 14:32N 35°37' E 139°48'0 0.0
2015-Jun-27 13:32N 35°37' E 139°48'0 0.0
2015-Jun-27 12:32N 35°37' E 139°48'0 0.0
2015-Jun-27 11:29N 35°37' E 139°48'0 0.0
2015-Jun-27 10:29N 35°37' E 139°48'2 2.2
2015-Jun-27 09:33N 35°36' E 139°50'7 6.6
2015-Jun-27 08:32N 35°35' E 139°58'5 5.5
2015-Jun-27 07:33N 35°33' E 140°04'1 0.7
2015-Jun-27 06:32N 35°33' E 140°05'0 0.0
2015-Jun-27 05:29N 35°33' E 140°05'0 0.0
2015-Jun-27 04:29N 35°33' E 140°05'0 0.0
2015-Jun-27 03:32N 35°33' E 140°05'0 0.0
2015-Jun-27 02:32N 35°33' E 140°05'0 0.0
2015-Jun-27 01:32N 35°33' E 140°05'0 0.0
2015-Jun-27 00:26N 35°33' E 140°05'0 0.0
2015-Jun-26 23:32N 35°33' E 140°05'0 0.0
2015-Jun-26 22:32N 35°33' E 140°05'0 0.0
2015-Jun-26 21:29N 35°33' E 140°05'1 0.8
2015-Jun-26 20:31N 35°33' E 140°06'0 0.0
2015-Jun-26 19:31N 35°33' E 140°06'0 0.0
2015-Jun-26 18:31N 35°33' E 140°06'0 0.0
2015-Jun-26 17:28N 35°33' E 140°06'0 0.0
2015-Jun-26 16:16N 35°33' E 140°06'0 0.0
2015-Jun-26 15:31N 35°33' E 140°06'0 0.0
2015-Jun-26 14:31N 35°33' E 140°06'0 0.0
2015-Jun-26 13:31N 35°33' E 140°06'0 0.0
2015-Jun-26 12:28N 35°33' E 140°06'0 0.0
2015-Jun-26 11:28N 35°33' E 140°06'0 0.0
2015-Jun-26 10:28N 35°33' E 140°06'0 0.0
2015-Jun-26 09:31N 35°33' E 140°06'0 0.0
2015-Jun-26 08:25N 35°33' E 140°06'0 0.0
2015-Jun-26 07:25N 35°33' E 140°06'0 0.0
2015-Jun-26 06:31N 35°33' E 140°06'0 0.0
2015-Jun-26 05:31N 35°33' E 140°06'0 0.0
2015-Jun-26 04:31N 35°33' E 140°06'0 0.0
2015-Jun-26 03:28N 35°33' E 140°06'0 0.0
2015-Jun-26 02:31N 35°33' E 140°06'0 0.0
2015-Jun-26 01:28N 35°33' E 140°06'0 0.0
2015-Jun-26 00:31N 35°33' E 140°06'0 0.0
2015-Jun-25 23:28N 35°33' E 140°06'0 0.0
2015-Jun-25 22:22N 35°33' E 140°06'2 2.3
2015-Jun-25 21:33N 35°33' E 140°04'4 4.1
2015-Jun-25 20:30N 35°34' E 139°58'4 4.2
2015-Jun-25 19:33N 35°35' E 139°54'5 5.0
2015-Jun-25 18:32N 35°37' E 139°48'0 0.2
2015-Jun-25 17:33N 35°37' E 139°48'0 0.0
2015-Jun-25 16:33N 35°37' E 139°48'0 0.0
2015-Jun-25 15:30N 35°37' E 139°48'0 0.0
2015-Jun-25 14:30N 35°37' E 139°48'0 0.0
2015-Jun-25 13:24N 35°37' E 139°48'0 0.0
2015-Jun-25 12:33N 35°37' E 139°48'0 0.0
2015-Jun-25 11:30N 35°37' E 139°48'0 0.0
2015-Jun-25 10:30N 35°37' E 139°48'0 0.0
2015-Jun-25 09:33N 35°37' E 139°48'0 0.0
2015-Jun-25 08:33N 35°37' E 139°48'0 0.0
2015-Jun-25 07:33N 35°37' E 139°48'0 0.0
2015-Jun-25 06:27N 35°37' E 139°48'0 0.0
2015-Jun-25 05:33N 35°37' E 139°48'0 0.0
2015-Jun-25 04:33N 35°37' E 139°48'0 0.0
2015-Jun-25 03:33N 35°37' E 139°48'0 0.0
2015-Jun-25 02:33N 35°37' E 139°48'0 0.0
2015-Jun-25 01:33N 35°37' E 139°48'2 1.7
2015-Jun-25 00:33N 35°36' E 139°50'0 0.0
2015-Jun-24 23:33N 35°36' E 139°50'2 1.2
2015-Jun-24 22:11N 35°37' E 139°48'0 0.0
2015-Jun-24 21:23N 35°37' E 139°48'0 0.0
2015-Jun-24 20:29N 35°37' E 139°48'0 0.0
2015-Jun-24 16:29N 35°37' E 139°48'0 0.0
2015-Jun-24 15:23N 35°37' E 139°48'0 0.0
2015-Jun-24 13:17N 35°37' E 139°48'0 0.0
2015-Jun-24 12:23N 35°37' E 139°48'0 0.0
2015-Jun-24 09:29N 35°37' E 139°48'0 0.0
2015-Jun-24 08:23N 35°37' E 139°48'4 2.0
2015-Jun-24 06:33N 35°35' E 139°51'12 9.7
2015-Jun-24 05:17N 35°23' E 139°46'8 9.6
2015-Jun-24 04:27N 35°15' E 139°47'  

Dump ship's entire track history